LIPY/AOI METAR and TAF weather

Enter ICAO airport designator
Station Type Date Time Source
LIPY METAR 2022/01/29 12:20 UTC NOAA

LIPY 291220Z 19006KT 150V230 CAVOK 12/M04 Q1030


Station Type Date Time Source
LIPY Decoded METAR 2022/01/29 12:20 UTC NOAA

Falconara, Italy (LIPY) 43-37N 013-22E 10M
Jan 29, 2022 - 07:20 AM EST / 2022.01.29 1220 UTC
Wind: from the S (190 degrees) at 7 MPH (6 KT) (direction variable):0
Visibility: greater than 7 mile(s):0
Temperature: 53 F (12 C)
Dew Point: 24 F (-4 C)
Relative Humidity: 32%
Pressure (altimeter): 30.42 in. Hg (1030 hPa)
ob: LIPY 291220Z 19006KT 150V230 CAVOK 12/M04 Q1030
cycle: 12

Station Type Date Time Source
LIPY TAF 2022/01/29 12:21 UTC NOAA

TAF LIPY 291100Z 2912/3012 VRB06KT CAVOK
TEMPO 2922/3007 3000 BR

Example: see airport list